sensor_id;sensor_type;location;lat;lon;timestamp;pressure;altitude;pressure_sealevel;temperature
74750;BMP280;63269;53.330;-6.288;2023-05-23T00:01:00;102831.16;;;21.78
74750;BMP280;63269;53.330;-6.288;2023-05-23T00:03:26;102839.16;;;21.78
74750;BMP280;63269;53.330;-6.288;2023-05-23T00:05:53;102843.31;;;21.79
74750;BMP280;63269;53.330;-6.288;2023-05-23T00:08:18;102843.31;;;21.79
74750;BMP280;63269;53.330;-6.288;2023-05-23T00:10:44;102843.31;;;21.79
74750;BMP280;63269;53.330;-6.288;2023-05-23T00:13:10;102827.31;;;21.75
74750;BMP280;63269;53.330;-6.288;2023-05-23T00:15:39;102832.66;;;21.75
74750;BMP280;63269;53.330;-6.288;2023-05-23T00:18:09;102843.75;;;21.74
74750;BMP280;63269;53.330;-6.288;2023-05-23T00:20:39;102849.09;;;21.74
74750;BMP280;63269;53.330;-6.288;2023-05-23T00:23:06;102855.56;;;21.73
74750;BMP280;63269;53.330;-6.288;2023-05-23T00:25:33;102855.56;;;21.73
74750;BMP280;63269;53.330;-6.288;2023-05-23T00:28:02;102846.03;;;21.72
74750;BMP280;63269;53.330;-6.288;2023-05-23T00:30:29;102847.94;;;21.71
74750;BMP280;63269;53.330;-6.288;2023-05-23T00:32:55;102847.19;;;21.71
74750;BMP280;63269;53.330;-6.288;2023-05-23T00:35:20;102842.59;;;21.68
74750;BMP280;63269;53.330;-6.288;2023-05-23T00:37:46;102846.06;;;21.68
74750;BMP280;63269;53.330;-6.288;2023-05-23T00:40:14;102841.84;;;21.67
74750;BMP280;63269;53.330;-6.288;2023-05-23T00:42:40;102841.84;;;21.67
74750;BMP280;63269;53.330;-6.288;2023-05-23T00:45:06;102840.34;;;21.66
74750;BMP280;63269;53.330;-6.288;2023-05-23T00:47:32;102841.50;;;21.65
74750;BMP280;63269;53.330;-6.288;2023-05-23T00:49:57;102834.25;;;21.66
74750;BMP280;63269;53.330;-6.288;2023-05-23T00:52:23;102834.25;;;21.66
74750;BMP280;63269;53.330;-6.288;2023-05-23T00:54:49;102838.03;;;21.65
74750;BMP280;63269;53.330;-6.288;2023-05-23T00:57:14;102831.19;;;21.64
74750;BMP280;63269;53.330;-6.288;2023-05-23T00:59:41;102831.19;;;21.64
74750;BMP280;63269;53.330;-6.288;2023-05-23T01:02:07;102831.56;;;21.62
74750;BMP280;63269;53.330;-6.288;2023-05-23T01:04:32;102826.22;;;21.62
74750;BMP280;63269;53.330;-6.288;2023-05-23T01:06:58;102826.59;;;21.60
74750;BMP280;63269;53.330;-6.288;2023-05-23T01:09:26;102832.75;;;21.61
74750;BMP280;63269;53.330;-6.288;2023-05-23T01:14:34;102840.34;;;21.59
74750;BMP280;63269;53.330;-6.288;2023-05-23T01:17:06;102840.34;;;21.59
74750;BMP280;63269;53.330;-6.288;2023-05-23T01:19:50;102826.22;;;21.58
74750;BMP280;63269;53.330;-6.288;2023-05-23T01:22:26;102826.63;;;21.57
74750;BMP280;63269;53.330;-6.288;2023-05-23T01:25:09;102830.84;;;21.58
74750;BMP280;63269;53.330;-6.288;2023-05-23T01:27:51;102833.13;;;21.56
74750;BMP280;63269;53.330;-6.288;2023-05-23T01:30:19;102831.59;;;21.55
74750;BMP280;63269;53.330;-6.288;2023-05-23T01:32:46;102838.47;;;21.56
74750;BMP280;63269;53.330;-6.288;2023-05-23T01:35:15;102838.47;;;21.56
74750;BMP280;63269;53.330;-6.288;2023-05-23T01:37:44;102840.00;;;21.53
74750;BMP280;63269;53.330;-6.288;2023-05-23T01:40:10;102838.84;;;21.54
74750;BMP280;63269;53.330;-6.288;2023-05-23T01:42:36;102837.31;;;21.53
74750;BMP280;63269;53.330;-6.288;2023-05-23T01:45:02;102837.31;;;21.53
74750;BMP280;63269;53.330;-6.288;2023-05-23T01:47:28;102854.50;;;21.52
74750;BMP280;63269;53.330;-6.288;2023-05-23T01:49:54;102854.50;;;21.52
74750;BMP280;63269;53.330;-6.288;2023-05-23T01:52:21;102851.84;;;21.52
74750;BMP280;63269;53.330;-6.288;2023-05-23T01:54:48;102851.84;;;21.52
74750;BMP280;63269;53.330;-6.288;2023-05-23T01:57:14;102861.00;;;21.51
74750;BMP280;63269;53.330;-6.288;2023-05-23T01:59:39;102861.00;;;21.51
74750;BMP280;63269;53.330;-6.288;2023-05-23T02:02:05;102852.59;;;21.49
74750;BMP280;63269;53.330;-6.288;2023-05-23T02:04:30;102856.06;;;21.50
74750;BMP280;63269;53.330;-6.288;2023-05-23T02:06:56;102856.06;;;21.50
74750;BMP280;63269;53.330;-6.288;2023-05-23T02:09:21;102850.31;;;21.48
74750;BMP280;63269;53.330;-6.288;2023-05-23T02:11:47;102854.91;;;21.47
74750;BMP280;63269;53.330;-6.288;2023-05-23T02:14:12;102857.97;;;21.46
74750;BMP280;63269;53.330;-6.288;2023-05-23T02:16:38;102854.50;;;21.45
74750;BMP280;63269;53.330;-6.288;2023-05-23T02:19:03;102855.31;;;21.46
74750;BMP280;63269;53.330;-6.288;2023-05-23T02:21:29;102853.34;;;21.46
74750;BMP280;63269;53.330;-6.288;2023-05-23T02:23:56;102855.31;;;21.46
74750;BMP280;63269;53.330;-6.288;2023-05-23T02:26:21;102843.84;;;21.45
74750;BMP280;63269;53.330;-6.288;2023-05-23T02:28:46;102843.84;;;21.45
74750;BMP280;63269;53.330;-6.288;2023-05-23T02:31:12;102852.22;;;21.44
74750;BMP280;63269;53.330;-6.288;2023-05-23T02:33:37;102855.69;;;21.44
74750;BMP280;63269;53.330;-6.288;2023-05-23T02:36:03;102855.69;;;21.44
74750;BMP280;63269;53.330;-6.288;2023-05-23T02:38:29;102855.69;;;21.44
74750;BMP280;63269;53.330;-6.288;2023-05-23T02:40:55;102854.13;;;21.43
74750;BMP280;63269;53.330;-6.288;2023-05-23T02:43:22;102856.06;;;21.43
74750;BMP280;63269;53.330;-6.288;2023-05-23T02:45:47;102852.59;;;21.42
74750;BMP280;63269;53.330;-6.288;2023-05-23T02:48:13;102852.59;;;21.42
74750;BMP280;63269;53.330;-6.288;2023-05-23T02:50:38;102859.88;;;21.42
74750;BMP280;63269;53.330;-6.288;2023-05-23T02:53:03;102862.56;;;21.42
74750;BMP280;63269;53.330;-6.288;2023-05-23T02:55:29;102862.56;;;21.42
74750;BMP280;63269;53.330;-6.288;2023-05-23T02:57:56;102862.94;;;21.40
74750;BMP280;63269;53.330;-6.288;2023-05-23T03:00:23;102862.94;;;21.40
74750;BMP280;63269;53.330;-6.288;2023-05-23T03:02:49;102863.31;;;21.38
74750;BMP280;63269;53.330;-6.288;2023-05-23T03:05:14;102857.19;;;21.38
74750;BMP280;63269;53.330;-6.288;2023-05-23T03:07:39;102858.38;;;21.37
74750;BMP280;63269;53.330;-6.288;2023-05-23T03:10:06;102855.69;;;21.37
74750;BMP280;63269;53.330;-6.288;2023-05-23T03:12:31;102859.50;;;21.36
74750;BMP280;63269;53.330;-6.288;2023-05-23T03:14:57;102858.38;;;21.37
74750;BMP280;63269;53.330;-6.288;2023-05-23T03:17:24;102861.41;;;21.35
74750;BMP280;63269;53.330;-6.288;2023-05-23T03:19:49;102856.06;;;21.35
74750;BMP280;63269;53.330;-6.288;2023-05-23T03:22:15;102859.50;;;21.36
74750;BMP280;63269;53.330;-6.288;2023-05-23T03:24:40;102861.41;;;21.35
74750;BMP280;63269;53.330;-6.288;2023-05-23T03:27:07;102866.75;;;21.35
74750;BMP280;63269;53.330;-6.288;2023-05-23T03:29:32;102861.41;;;21.35
74750;BMP280;63269;53.330;-6.288;2023-05-23T03:31:58;102861.41;;;21.35
74750;BMP280;63269;53.330;-6.288;2023-05-23T03:34:23;102858.38;;;21.33
74750;BMP280;63269;53.330;-6.288;2023-05-23T03:36:50;102849.59;;;21.33
74750;BMP280;63269;53.330;-6.288;2023-05-23T03:39:16;102857.63;;;21.33
74750;BMP280;63269;53.330;-6.288;2023-05-23T03:41:41;102857.63;;;21.33
74750;BMP280;63269;53.330;-6.288;2023-05-23T03:44:07;102854.94;;;21.33
74750;BMP280;63269;53.330;-6.288;2023-05-23T03:46:32;102848.81;;;21.32
74750;BMP280;63269;53.330;-6.288;2023-05-23T03:48:57;102848.81;;;21.32
74750;BMP280;63269;53.330;-6.288;2023-05-23T03:51:23;102851.13;;;21.30
74750;BMP280;63269;53.330;-6.288;2023-05-23T03:53:48;102851.13;;;21.30
74750;BMP280;63269;53.330;-6.288;2023-05-23T03:56:14;102838.91;;;21.29
74750;BMP280;63269;53.330;-6.288;2023-05-23T03:58:39;102842.34;;;21.30
74750;BMP280;63269;53.330;-6.288;2023-05-23T04:01:05;102844.25;;;21.29
74750;BMP280;63269;53.330;-6.288;2023-05-23T04:03:30;102845.78;;;21.30
74750;BMP280;63269;53.330;-6.288;2023-05-23T04:05:59;102844.25;;;21.29
74750;BMP280;63269;53.330;-6.288;2023-05-23T04:08:25;102838.16;;;21.29
74750;BMP280;63269;53.330;-6.288;2023-05-23T04:10:51;102838.16;;;21.29
74750;BMP280;63269;53.330;-6.288;2023-05-23T04:13:16;102833.22;;;21.27
74750;BMP280;63269;53.330;-6.288;2023-05-23T04:15:42;102836.63;;;21.28
74750;BMP280;63269;53.330;-6.288;2023-05-23T04:18:07;102832.41;;;21.27
74750;BMP280;63269;53.330;-6.288;2023-05-23T04:20:34;102830.16;;;21.29
74750;BMP280;63269;53.330;-6.288;2023-05-23T04:22:59;102831.28;;;21.28
74750;BMP280;63269;53.330;-6.288;2023-05-23T04:25:24;102831.28;;;21.28
74750;BMP280;63269;53.330;-6.288;2023-05-23T04:27:51;102835.09;;;21.27
74750;BMP280;63269;53.330;-6.288;2023-05-23T04:30:16;102835.09;;;21.27
74750;BMP280;63269;53.330;-6.288;2023-05-23T04:32:42;102833.59;;;21.26
74750;BMP280;63269;53.330;-6.288;2023-05-23T04:35:08;102835.09;;;21.27
74750;BMP280;63269;53.330;-6.288;2023-05-23T04:37:34;102835.09;;;21.27
74750;BMP280;63269;53.330;-6.288;2023-05-23T04:40:02;102838.91;;;21.26
74750;BMP280;63269;53.330;-6.288;2023-05-23T04:42:28;102839.31;;;21.28
74750;BMP280;63269;53.330;-6.288;2023-05-23T04:44:54;102839.31;;;21.28
74750;BMP280;63269;53.330;-6.288;2023-05-23T04:47:21;102839.31;;;21.28
74750;BMP280;63269;53.330;-6.288;2023-05-23T04:49:49;102839.31;;;21.28
74750;BMP280;63269;53.330;-6.288;2023-05-23T04:52:14;102836.25;;;21.26
74750;BMP280;63269;53.330;-6.288;2023-05-23T04:54:43;102839.31;;;21.28
74750;BMP280;63269;53.330;-6.288;2023-05-23T04:57:10;102839.69;;;21.26
74750;BMP280;63269;53.330;-6.288;2023-05-23T04:59:37;102845.00;;;21.26
74750;BMP280;63269;53.330;-6.288;2023-05-23T05:02:02;102845.00;;;21.26
74750;BMP280;63269;53.330;-6.288;2023-05-23T05:04:28;102837.75;;;21.27
74750;BMP280;63269;53.330;-6.288;2023-05-23T05:06:53;102837.75;;;21.27
74750;BMP280;63269;53.330;-6.288;2023-05-23T05:09:19;102848.09;;;21.25
74750;BMP280;63269;53.330;-6.288;2023-05-23T05:11:45;102851.09;;;21.27
74750;BMP280;63269;53.330;-6.288;2023-05-23T05:14:11;102851.09;;;21.27
74750;BMP280;63269;53.330;-6.288;2023-05-23T05:16:36;102853.78;;;21.27
74750;BMP280;63269;53.330;-6.288;2023-05-23T05:19:02;102853.78;;;21.27
74750;BMP280;63269;53.330;-6.288;2023-05-23T05:21:27;102852.28;;;21.26
74750;BMP280;63269;53.330;-6.288;2023-05-23T05:23:53;102859.13;;;21.27
74750;BMP280;63269;53.330;-6.288;2023-05-23T05:26:18;102854.94;;;21.26
74750;BMP280;63269;53.330;-6.288;2023-05-23T05:28:44;102850.75;;;21.25
74750;BMP280;63269;53.330;-6.288;2023-05-23T05:31:09;102850.75;;;21.25
74750;BMP280;63269;53.330;-6.288;2023-05-23T05:33:39;102851.88;;;21.24
74750;BMP280;63269;53.330;-6.288;2023-05-23T05:36:06;102851.88;;;21.24
74750;BMP280;63269;53.330;-6.288;2023-05-23T05:38:31;102851.13;;;21.23
74750;BMP280;63269;53.330;-6.288;2023-05-23T05:40:57;102851.13;;;21.23
74750;BMP280;63269;53.330;-6.288;2023-05-23T05:43:24;102851.13;;;21.23
74750;BMP280;63269;53.330;-6.288;2023-05-23T05:45:50;102845.78;;;21.23
74750;BMP280;63269;53.330;-6.288;2023-05-23T05:48:15;102846.53;;;21.24
74750;BMP280;63269;53.330;-6.288;2023-05-23T05:50:42;102846.53;;;21.24
74750;BMP280;63269;53.330;-6.288;2023-05-23T05:53:10;102838.16;;;21.22
74750;BMP280;63269;53.330;-6.288;2023-05-23T05:55:35;102842.38;;;21.23
74750;BMP280;63269;53.330;-6.288;2023-05-23T05:58:02;102843.88;;;21.24
74750;BMP280;63269;53.330;-6.288;2023-05-23T06:00:27;102845.78;;;21.23
74750;BMP280;63269;53.330;-6.288;2023-05-23T06:02:52;102845.78;;;21.23
74750;BMP280;63269;53.330;-6.288;2023-05-23T06:05:21;102840.47;;;21.23
74750;BMP280;63269;53.330;-6.288;2023-05-23T06:07:48;102845.03;;;21.23
74750;BMP280;63269;53.330;-6.288;2023-05-23T06:10:14;102840.47;;;21.23
74750;BMP280;63269;53.330;-6.288;2023-05-23T06:12:40;102847.34;;;21.24
74750;BMP280;63269;53.330;-6.288;2023-05-23T06:15:07;102837.41;;;21.25
74750;BMP280;63269;53.330;-6.288;2023-05-23T06:17:33;102839.69;;;21.33
74750;BMP280;63269;53.330;-6.288;2023-05-23T06:19:59;102834.34;;;21.37
74750;BMP280;63269;53.330;-6.288;2023-05-23T06:22:24;102834.34;;;21.37
74750;BMP280;63269;53.330;-6.288;2023-05-23T06:24:50;102843.09;;;21.41
74750;BMP280;63269;53.330;-6.288;2023-05-23T06:27:15;102848.41;;;21.45
74750;BMP280;63269;53.330;-6.288;2023-05-23T06:29:40;102843.47;;;21.47
74750;BMP280;63269;53.330;-6.288;2023-05-23T06:32:06;102841.50;;;21.54
74750;BMP280;63269;53.330;-6.288;2023-05-23T06:34:31;102841.50;;;21.54
74750;BMP280;63269;53.330;-6.288;2023-05-23T06:36:57;102844.22;;;21.58
74750;BMP280;63269;53.330;-6.288;2023-05-23T06:39:22;102854.09;;;21.61
74750;BMP280;63269;53.330;-6.288;2023-05-23T06:41:48;102862.47;;;21.63
74750;BMP280;63269;53.330;-6.288;2023-05-23T06:44:14;102857.88;;;21.71
74750;BMP280;63269;53.330;-6.288;2023-05-23T06:46:41;102853.66;;;21.73
74750;BMP280;63269;53.330;-6.288;2023-05-23T06:49:07;102858.25;;;21.76
74750;BMP280;63269;53.330;-6.288;2023-05-23T06:51:32;102858.25;;;21.76
74750;BMP280;63269;53.330;-6.288;2023-05-23T06:53:58;102862.81;;;21.76
74750;BMP280;63269;53.330;-6.288;2023-05-23T06:56:23;102864.69;;;21.79
74750;BMP280;63269;53.330;-6.288;2023-05-23T06:58:48;102857.03;;;21.85
74750;BMP280;63269;53.330;-6.288;2023-05-23T07:01:14;102858.19;;;21.87
74750;BMP280;63269;53.330;-6.288;2023-05-23T07:03:39;102857.41;;;21.90
74750;BMP280;63269;53.330;-6.288;2023-05-23T07:06:07;102853.56;;;21.91
74750;BMP280;63269;53.330;-6.288;2023-05-23T07:08:32;102855.50;;;21.94
74750;BMP280;63269;53.330;-6.288;2023-05-23T07:10:58;102855.09;;;21.96
74750;BMP280;63269;53.330;-6.288;2023-05-23T07:13:24;102856.63;;;21.97
74750;BMP280;63269;53.330;-6.288;2023-05-23T07:15:49;102849.72;;;21.99
74750;BMP280;63269;53.330;-6.288;2023-05-23T07:18:15;102853.56;;;22.02
74750;BMP280;63269;53.330;-6.288;2023-05-23T07:20:40;102853.16;;;22.03
74750;BMP280;63269;53.330;-6.288;2023-05-23T07:23:06;102858.47;;;22.07
74750;BMP280;63269;53.330;-6.288;2023-05-23T07:25:31;102860.75;;;22.09
74750;BMP280;63269;53.330;-6.288;2023-05-23T07:27:56;102856.94;;;22.10
74750;BMP280;63269;53.330;-6.288;2023-05-23T07:30:22;102853.84;;;22.11
74750;BMP280;63269;53.330;-6.288;2023-05-23T07:32:48;102854.25;;;22.13
74750;BMP280;63269;53.330;-6.288;2023-05-23T07:35:17;102858.81;;;22.16
74750;BMP280;63269;53.330;-6.288;2023-05-23T07:37:42;102854.22;;;22.17
74750;BMP280;63269;53.330;-6.288;2023-05-23T07:40:08;102858.00;;;22.19
74750;BMP280;63269;53.330;-6.288;2023-05-23T07:42:34;102845.41;;;22.20
74750;BMP280;63269;53.330;-6.288;2023-05-23T07:45:00;102853.03;;;22.21
74750;BMP280;63269;53.330;-6.288;2023-05-23T07:47:26;102856.50;;;22.22
74750;BMP280;63269;53.330;-6.288;2023-05-23T07:49:52;102856.50;;;22.22
74750;BMP280;63269;53.330;-6.288;2023-05-23T07:52:17;102842.34;;;22.25
74750;BMP280;63269;53.330;-6.288;2023-05-23T07:54:43;102842.34;;;22.25
74750;BMP280;63269;53.330;-6.288;2023-05-23T07:57:08;102860.25;;;22.28
74750;BMP280;63269;53.330;-6.288;2023-05-23T07:59:34;102860.25;;;22.28
74750;BMP280;63269;53.330;-6.288;2023-05-23T08:02:00;102867.91;;;22.30
74750;BMP280;63269;53.330;-6.288;2023-05-23T08:04:27;102875.13;;;22.33
74750;BMP280;63269;53.330;-6.288;2023-05-23T08:06:53;102866.75;;;22.34
74750;BMP280;63269;53.330;-6.288;2023-05-23T08:09:19;102875.50;;;22.35
74750;BMP280;63269;53.330;-6.288;2023-05-23T08:11:45;102876.25;;;22.39
74750;BMP280;63269;53.330;-6.288;2023-05-23T08:14:10;102878.53;;;22.37
74750;BMP280;63269;53.330;-6.288;2023-05-23T08:16:35;102878.53;;;22.37
74750;BMP280;63269;53.330;-6.288;2023-05-23T08:19:02;102873.56;;;22.39
74750;BMP280;63269;53.330;-6.288;2023-05-23T08:21:27;102873.56;;;22.39
74750;BMP280;63269;53.330;-6.288;2023-05-23T08:23:52;102873.19;;;22.37
74750;BMP280;63269;53.330;-6.288;2023-05-23T08:26:18;102872.81;;;22.38
74750;BMP280;63269;53.330;-6.288;2023-05-23T08:28:43;102863.66;;;22.36
74750;BMP280;63269;53.330;-6.288;2023-05-23T08:31:09;102868.22;;;22.35
74750;BMP280;63269;53.330;-6.288;2023-05-23T08:33:35;102868.22;;;22.35
74750;BMP280;63269;53.330;-6.288;2023-05-23T08:36:01;102864.44;;;22.33
74750;BMP280;63269;53.330;-6.288;2023-05-23T08:38:26;102856.78;;;22.31
74750;BMP280;63269;53.330;-6.288;2023-05-23T08:40:53;102858.72;;;22.31
74750;BMP280;63269;53.330;-6.288;2023-05-23T08:43:19;102867.91;;;22.30
74750;BMP280;63269;53.330;-6.288;2023-05-23T08:45:44;102858.38;;;22.29
74750;BMP280;63269;53.330;-6.288;2023-05-23T08:48:12;102860.66;;;22.27
74750;BMP280;63269;53.330;-6.288;2023-05-23T08:50:39;102860.66;;;22.27
74750;BMP280;63269;53.330;-6.288;2023-05-23T08:53:07;102866.03;;;22.23
74750;BMP280;63269;53.330;-6.288;2023-05-23T08:55:34;102867.94;;;22.22
74750;BMP280;63269;53.330;-6.288;2023-05-23T08:58:01;102860.31;;;22.21
74750;BMP280;63269;53.330;-6.288;2023-05-23T09:00:28;102868.72;;;22.19
74750;BMP280;63269;53.330;-6.288;2023-05-23T09:02:54;102864.91;;;22.17
74750;BMP280;63269;53.330;-6.288;2023-05-23T09:05:20;102864.91;;;22.17
74750;BMP280;63269;53.330;-6.288;2023-05-23T09:07:47;102863.03;;;22.14
74750;BMP280;63269;53.330;-6.288;2023-05-23T09:10:13;102847.00;;;22.10
74750;BMP280;63269;53.330;-6.288;2023-05-23T09:12:41;102847.00;;;22.10
74750;BMP280;63269;53.330;-6.288;2023-05-23T09:15:08;102845.88;;;22.08
74750;BMP280;63269;53.330;-6.288;2023-05-23T09:17:34;102845.88;;;22.08
74750;BMP280;63269;53.330;-6.288;2023-05-23T09:20:01;102840.53;;;22.04
74750;BMP280;63269;53.330;-6.288;2023-05-23T09:22:29;102836.72;;;22.05
74750;BMP280;63269;53.330;-6.288;2023-05-23T09:24:55;102836.72;;;22.05
74750;BMP280;63269;53.330;-6.288;2023-05-23T09:27:21;102832.94;;;22.02
74750;BMP280;63269;53.330;-6.288;2023-05-23T09:29:47;102832.94;;;22.02
74750;BMP280;63269;53.330;-6.288;2023-05-23T09:32:16;102835.59;;;22.02
74750;BMP280;63269;53.330;-6.288;2023-05-23T09:34:56;102835.59;;;22.02
74750;BMP280;63269;53.330;-6.288;2023-05-23T09:37:28;102839.78;;;22.00
74750;BMP280;63269;53.330;-6.288;2023-05-23T09:39:54;102839.78;;;22.00
74750;BMP280;63269;53.330;-6.288;2023-05-23T09:42:20;102820.75;;;21.98
74750;BMP280;63269;53.330;-6.288;2023-05-23T09:44:47;102823.78;;;21.96
74750;BMP280;63269;53.330;-6.288;2023-05-23T09:47:14;102827.97;;;21.97
74750;BMP280;63269;53.330;-6.288;2023-05-23T09:49:42;102833.31;;;21.97
74750;BMP280;63269;53.330;-6.288;2023-05-23T09:52:07;102826.47;;;21.96
74750;BMP280;63269;53.330;-6.288;2023-05-23T09:54:33;102815.41;;;21.94
74750;BMP280;63269;53.330;-6.288;2023-05-23T09:57:00;102816.56;;;21.93
74750;BMP280;63269;53.330;-6.288;2023-05-23T09:59:31;102816.56;;;21.93
74750;BMP280;63269;53.330;-6.288;2023-05-23T10:01:59;102824.59;;;21.93
74750;BMP280;63269;53.330;-6.288;2023-05-23T10:04:30;102824.59;;;21.93
74750;BMP280;63269;53.330;-6.288;2023-05-23T10:07:00;102819.59;;;21.92
74750;BMP280;63269;53.330;-6.288;2023-05-23T10:09:32;102814.25;;;21.92
74750;BMP280;63269;53.330;-6.288;2023-05-23T10:12:52;102814.25;;;21.92
74750;BMP280;63269;53.330;-6.288;2023-05-23T10:15:13;102821.16;;;21.89
74750;BMP280;63269;53.330;-6.288;2023-05-23T10:17:52;102814.66;;;21.87
74750;BMP280;63269;53.330;-6.288;2023-05-23T10:20:24;102829.56;;;21.88
74750;BMP280;63269;53.330;-6.288;2023-05-23T10:22:51;102829.56;;;21.88
74750;BMP280;63269;53.330;-6.288;2023-05-23T10:25:16;102828.78;;;21.87
74750;BMP280;63269;53.330;-6.288;2023-05-23T10:27:42;102827.66;;;21.85
74750;BMP280;63269;53.330;-6.288;2023-05-23T10:30:08;102827.66;;;21.85
74750;BMP280;63269;53.330;-6.288;2023-05-23T10:32:36;102824.22;;;21.84
74750;BMP280;63269;53.330;-6.288;2023-05-23T10:35:14;102818.88;;;21.84
74750;BMP280;63269;53.330;-6.288;2023-05-23T10:45:47;102813.53;;;21.80
74750;BMP280;63269;53.330;-6.288;2023-05-23T10:51:00;102804.78;;;21.80
74750;BMP280;63269;53.330;-6.288;2023-05-23T10:53:28;102812.78;;;21.80
74750;BMP280;63269;53.330;-6.288;2023-05-23T10:55:55;102797.91;;;21.79
74750;BMP280;63269;53.330;-6.288;2023-05-23T10:58:21;102797.13;;;21.78
74750;BMP280;63269;53.330;-6.288;2023-05-23T11:00:59;102797.13;;;21.78
74750;BMP280;63269;53.330;-6.288;2023-05-23T11:03:33;102803.25;;;21.79
74750;BMP280;63269;53.330;-6.288;2023-05-23T11:06:00;102804.44;;;21.78
74750;BMP280;63269;53.330;-6.288;2023-05-23T11:08:26;102795.63;;;21.77
74750;BMP280;63269;53.330;-6.288;2023-05-23T11:10:53;102793.75;;;21.78
74750;BMP280;63269;53.330;-6.288;2023-05-23T11:13:20;102793.75;;;21.78
74750;BMP280;63269;53.330;-6.288;2023-05-23T11:15:46;102800.22;;;21.77
74750;BMP280;63269;53.330;-6.288;2023-05-23T11:18:30;102801.34;;;21.76
74750;BMP280;63269;53.330;-6.288;2023-05-23T11:20:58;102782.66;;;21.76
74750;BMP280;63269;53.330;-6.288;2023-05-23T11:23:39;102778.09;;;21.76
74750;BMP280;63269;53.330;-6.288;2023-05-23T11:26:28;102779.63;;;21.74
74750;BMP280;63269;53.330;-6.288;2023-05-23T11:28:55;102779.63;;;21.74
74750;BMP280;63269;53.330;-6.288;2023-05-23T11:31:21;102786.88;;;21.73
74750;BMP280;63269;53.330;-6.288;2023-05-23T11:33:52;102779.63;;;21.74
74750;BMP280;63269;53.330;-6.288;2023-05-23T11:36:19;102779.63;;;21.74
74750;BMP280;63269;53.330;-6.288;2023-05-23T11:38:45;102783.84;;;21.68
74750;BMP280;63269;53.330;-6.288;2023-05-23T11:41:11;102779.66;;;21.70
74750;BMP280;63269;53.330;-6.288;2023-05-23T11:43:36;102776.19;;;21.73
74750;BMP280;63269;53.330;-6.288;2023-05-23T11:46:08;102778.84;;;21.73
74750;BMP280;63269;53.330;-6.288;2023-05-23T11:48:33;102778.84;;;21.73
74750;BMP280;63269;53.330;-6.288;2023-05-23T11:50:59;102777.72;;;21.71
74750;BMP280;63269;53.330;-6.288;2023-05-23T11:53:26;102785.75;;;21.71
74750;BMP280;63269;53.330;-6.288;2023-05-23T11:55:56;102777.72;;;21.71
74750;BMP280;63269;53.330;-6.288;2023-05-23T11:58:27;102764.38;;;21.71
74750;BMP280;63269;53.330;-6.288;2023-05-23T12:01:03;102780.00;;;21.72
74750;BMP280;63269;53.330;-6.288;2023-05-23T12:03:30;102780.00;;;21.72
74750;BMP280;63269;53.330;-6.288;2023-05-23T12:05:56;102779.66;;;21.70
74750;BMP280;63269;53.330;-6.288;2023-05-23T12:08:22;102770.88;;;21.70
74750;BMP280;63269;53.330;-6.288;2023-05-23T12:10:58;102770.88;;;21.70
74750;BMP280;63269;53.330;-6.288;2023-05-23T12:13:25;102759.44;;;21.69
74750;BMP280;63269;53.330;-6.288;2023-05-23T12:16:13;102770.13;;;21.69
74750;BMP280;63269;53.330;-6.288;2023-05-23T12:18:41;102770.13;;;21.69
74750;BMP280;63269;53.330;-6.288;2023-05-23T12:21:06;102770.88;;;21.70
74750;BMP280;63269;53.330;-6.288;2023-05-23T12:23:33;102770.13;;;21.69
74750;BMP280;63269;53.330;-6.288;2023-05-23T12:25:58;102770.13;;;21.69
74750;BMP280;63269;53.330;-6.288;2023-05-23T12:28:37;102765.91;;;21.68
74750;BMP280;63269;53.330;-6.288;2023-05-23T12:31:19;102752.56;;;21.68
74750;BMP280;63269;53.330;-6.288;2023-05-23T12:33:46;102759.78;;;21.68
74750;BMP280;63269;53.330;-6.288;2023-05-23T12:36:13;102759.78;;;21.68
74750;BMP280;63269;53.330;-6.288;2023-05-23T12:38:38;102758.28;;;21.67
74750;BMP280;63269;53.330;-6.288;2023-05-23T12:41:14;102743.41;;;21.69
74750;BMP280;63269;53.330;-6.288;2023-05-23T12:43:40;102743.41;;;21.69
74750;BMP280;63269;53.330;-6.288;2023-05-23T12:46:06;102739.19;;;21.68
74750;BMP280;63269;53.330;-6.288;2023-05-23T12:48:32;102739.19;;;21.68
74750;BMP280;63269;53.330;-6.288;2023-05-23T12:50:58;102743.41;;;21.66
74750;BMP280;63269;53.330;-6.288;2023-05-23T12:53:25;102734.63;;;21.69
74750;BMP280;63269;53.330;-6.288;2023-05-23T12:55:52;102738.41;;;21.68
74750;BMP280;63269;53.330;-6.288;2023-05-23T12:58:17;102724.31;;;21.67
74750;BMP280;63269;53.330;-6.288;2023-05-23T13:00:42;102730.41;;;21.68
74750;BMP280;63269;53.330;-6.288;2023-05-23T13:03:08;102745.69;;;21.67
74750;BMP280;63269;53.330;-6.288;2023-05-23T13:05:33;102745.69;;;21.67
74750;BMP280;63269;53.330;-6.288;2023-05-23T13:07:59;102728.91;;;21.67
74750;BMP280;63269;53.330;-6.288;2023-05-23T13:10:24;102739.59;;;21.67
74750;BMP280;63269;53.330;-6.288;2023-05-23T13:12:50;102731.56;;;21.67
74750;BMP280;63269;53.330;-6.288;2023-05-23T13:15:16;102739.59;;;21.67
74750;BMP280;63269;53.330;-6.288;2023-05-23T13:17:41;102736.16;;;21.66
74750;BMP280;63269;53.330;-6.288;2023-05-23T13:20:07;102731.56;;;21.67
74750;BMP280;63269;53.330;-6.288;2023-05-23T13:22:33;102735.00;;;21.67
74750;BMP280;63269;53.330;-6.288;2023-05-23T13:24:59;102730.06;;;21.66
74750;BMP280;63269;53.330;-6.288;2023-05-23T13:27:24;102729.31;;;21.65
74750;BMP280;63269;53.330;-6.288;2023-05-23T13:29:50;102730.81;;;21.66
74750;BMP280;63269;53.330;-6.288;2023-05-23T13:32:15;102725.47;;;21.66
74750;BMP280;63269;53.330;-6.288;2023-05-23T13:34:41;102724.72;;;21.66
74750;BMP280;63269;53.330;-6.288;2023-05-23T13:37:06;102730.41;;;21.68
74750;BMP280;63269;53.330;-6.288;2023-05-23T13:39:32;102730.41;;;21.68
74750;BMP280;63269;53.330;-6.288;2023-05-23T13:41:57;102722.81;;;21.66
74750;BMP280;63269;53.330;-6.288;2023-05-23T13:44:23;102722.38;;;21.68
74750;BMP280;63269;53.330;-6.288;2023-05-23T13:46:48;102726.97;;;21.67
74750;BMP280;63269;53.330;-6.288;2023-05-23T13:49:14;102726.97;;;21.67
74750;BMP280;63269;53.330;-6.288;2023-05-23T13:51:40;102723.56;;;21.67
74750;BMP280;63269;53.330;-6.288;2023-05-23T13:54:07;102731.94;;;21.69
74750;BMP280;63269;53.330;-6.288;2023-05-23T13:56:32;102731.94;;;21.69